createdAt,value
2018-04-22T00:00:39.017Z,88.17
2018-04-22T00:03:06.614Z,84.27
2018-04-22T00:05:34.097Z,92.53
2018-04-22T00:08:01.565Z,82.50
2018-04-22T00:10:29.057Z,79.93
2018-04-22T00:12:56.516Z,81.23
2018-04-22T00:15:23.997Z,77.90
2018-04-22T00:17:51.467Z,72.73
2018-04-22T00:20:18.936Z,82.87
2018-04-22T00:22:46.432Z,93.93
2018-04-22T00:25:14.687Z,84.13
2018-04-22T00:27:42.171Z,83.57
2018-04-22T00:30:10.437Z,78.73
2018-04-22T00:32:38.007Z,93.37
2018-04-22T00:35:06.303Z,72.97
2018-04-22T00:37:33.809Z,92.17
2018-04-22T00:40:01.330Z,84.87
2018-04-22T00:42:28.825Z,72.60
2018-04-22T00:44:56.296Z,78.83
2018-04-22T00:47:23.784Z,82.77
2018-04-22T00:49:52.037Z,84.10
2018-04-22T00:52:19.585Z,86.53
2018-04-22T00:54:47.069Z,93.37
2018-04-22T00:57:14.546Z,84.60
2018-04-22T00:59:42.813Z,86.33
2018-04-22T01:02:11.109Z,85.90
2018-04-22T01:04:38.577Z,79.77
2018-04-22T01:07:06.073Z,75.30
2018-04-22T01:09:33.548Z,80.53
2018-04-22T01:12:01.029Z,71.93
2018-04-22T01:14:29.269Z,91.17
2018-04-22T01:16:56.737Z,85.73
2018-04-22T01:19:24.213Z,78.67
2018-04-22T01:21:51.672Z,79.63
2018-04-22T01:24:19.149Z,82.23
2018-04-22T01:26:47.496Z,74.07
2018-04-22T01:29:14.974Z,71.27
2018-04-22T01:31:42.429Z,77.50
2018-04-22T01:34:09.914Z,77.07
2018-04-22T01:36:37.487Z,71.00
2018-04-22T01:39:05.706Z,74.80
2018-04-22T01:41:33.925Z,79.93
2018-04-22T01:44:02.170Z,79.37
2018-04-22T01:46:29.665Z,81.03
2018-04-22T01:48:57.131Z,76.57
2018-04-22T01:51:24.595Z,82.93
2018-04-22T01:53:52.072Z,77.93
2018-04-22T01:56:19.576Z,86.70
2018-04-22T01:58:47.952Z,77.90
2018-04-22T02:01:15.440Z,85.47
2018-04-22T02:03:42.922Z,84.37
2018-04-22T02:06:10.396Z,85.00
2018-04-22T02:08:37.891Z,89.90
2018-04-22T02:11:06.146Z,88.17
2018-04-22T02:13:33.624Z,85.83
2018-04-22T02:16:01.450Z,86.47
2018-04-22T02:18:29.012Z,96.27
2018-04-22T02:20:56.500Z,88.93
2018-04-22T02:23:23.960Z,87.07
2018-04-22T02:25:51.488Z,93.03
2018-04-22T02:28:18.978Z,91.07
2018-04-22T02:30:46.460Z,85.93
2018-04-22T02:33:14.693Z,82.27
2018-04-22T02:35:42.163Z,90.80
2018-04-22T02:38:09.632Z,91.80
2018-04-22T02:40:37.113Z,87.70
2018-04-22T02:43:05.376Z,83.50
2018-04-22T02:45:32.853Z,83.17
2018-04-22T02:48:01.091Z,82.43
2018-04-22T02:50:28.588Z,81.33
2018-04-22T02:52:56.820Z,83.93
2018-04-22T02:55:24.345Z,80.73
2018-04-22T02:57:52.387Z,96.57
2018-04-22T03:00:20.617Z,85.30
2018-04-22T03:02:48.114Z,80.53
2018-04-22T03:05:15.597Z,84.40
2018-04-22T03:07:43.061Z,78.50
2018-04-22T03:10:10.534Z,73.23
2018-04-22T03:12:38.043Z,71.50
2018-04-22T03:15:05.512Z,83.87
2018-04-22T03:17:33.780Z,81.43
2018-04-22T03:20:02.037Z,88.00
2018-04-22T03:22:29.624Z,90.40
2018-04-22T03:24:57.141Z,78.00
2018-04-22T03:27:24.617Z,84.90
2018-04-22T03:29:52.085Z,90.40
2018-04-22T03:32:19.621Z,92.50
2018-04-22T03:34:47.101Z,86.27
2018-04-22T03:37:14.573Z,89.67
2018-04-22T03:39:42.185Z,91.03
2018-04-22T03:42:09.799Z,93.63
2018-04-22T03:44:37.272Z,93.80
2018-04-22T03:47:05.517Z,80.87
2018-04-22T03:49:33.021Z,95.20
2018-04-22T03:52:01.262Z,92.07
2018-04-22T03:54:28.810Z,90.40
2018-04-22T03:56:56.302Z,85.63
2018-04-22T03:59:24.548Z,91.67
2018-04-22T04:01:52.050Z,91.87
2018-04-22T04:04:20.300Z,88.47
2018-04-22T04:06:47.772Z,94.23
2018-04-22T04:09:16.024Z,88.37
2018-04-22T04:11:43.507Z,86.17
2018-04-22T04:14:11.766Z,94.70
2018-04-22T04:16:39.238Z,87.70
2018-04-22T04:19:18.743Z,89.83
2018-04-22T04:21:58.977Z,101.07
2018-04-22T04:24:39.227Z,105.03
2018-04-22T04:27:18.615Z,102.63
2018-04-22T04:29:46.122Z,115.40
2018-04-22T04:32:13.616Z,103.00
2018-04-22T04:34:41.099Z,101.63
2018-04-22T04:37:08.601Z,110.27
2018-04-22T04:39:36.838Z,99.23
2018-04-22T04:42:04.344Z,102.97
2018-04-22T04:44:31.843Z,93.67
2018-04-22T04:46:59.387Z,105.93
2018-04-22T04:49:26.857Z,95.70
2018-04-22T04:51:54.325Z,93.60
2018-04-22T04:54:21.818Z,95.80
2018-04-22T04:56:50.081Z,82.57
2018-04-22T04:59:17.595Z,85.93
2018-04-22T05:01:45.401Z,91.27
2018-04-22T05:04:12.870Z,88.20
2018-04-22T05:06:40.344Z,87.80
2018-04-22T05:09:07.954Z,83.40
2018-04-22T05:11:35.449Z,79.17
2018-04-22T05:14:02.926Z,90.33
2018-04-22T05:16:31.197Z,85.70
2018-04-22T05:18:59.439Z,83.23
2018-04-22T05:21:26.922Z,74.93
2018-04-22T05:23:55.168Z,74.63
2018-04-22T05:26:22.782Z,71.07
2018-04-22T05:28:50.378Z,75.97
2018-04-22T05:31:17.918Z,75.90
2018-04-22T05:33:46.184Z,70.03
2018-04-22T05:36:14.478Z,64.37
2018-04-22T05:38:41.968Z,56.20
2018-04-22T05:41:09.438Z,49.30
2018-04-22T05:43:36.916Z,53.17
2018-04-22T05:46:05.181Z,42.50
2018-04-22T05:48:32.679Z,54.00
2018-04-22T05:51:00.155Z,45.40
2018-04-22T05:53:27.740Z,49.17
2018-04-22T05:55:55.236Z,70.47
2018-04-22T05:58:22.708Z,60.93
2018-04-22T06:00:50.964Z,57.00
2018-04-22T06:03:18.442Z,55.43
2018-04-22T06:05:46.673Z,49.63
2018-04-22T06:08:14.158Z,46.63
2018-04-22T06:10:42.435Z,44.03
2018-04-22T06:13:09.918Z,50.83
2018-04-22T06:15:38.169Z,51.10
2018-04-22T06:18:05.646Z,39.73
2018-04-22T06:20:33.884Z,44.00
2018-04-22T06:23:02.180Z,41.77
2018-04-22T06:25:31.402Z,31.57
2018-04-22T06:27:59.062Z,40.90
2018-04-22T06:30:27.304Z,36.97
2018-04-22T06:32:54.780Z,32.65
2018-04-22T06:35:22.290Z,33.92
2018-04-22T06:37:49.889Z,26.85
2018-04-22T06:40:17.381Z,29.83
2018-04-22T06:42:44.855Z,23.50
2018-04-22T06:45:12.345Z,14.70
2018-04-22T06:47:39.859Z,16.70
2018-04-22T06:50:08.143Z,14.00
2018-04-22T06:52:36.412Z,12.05
2018-04-22T06:55:04.674Z,13.13
2018-04-22T06:57:32.139Z,11.40
2018-04-22T07:00:00.421Z,12.23
2018-04-22T07:02:28.676Z,11.85
2018-04-22T07:04:56.151Z,13.30
2018-04-22T07:07:24.406Z,11.63
2018-04-22T07:09:52.180Z,14.65
2018-04-22T07:12:19.657Z,11.52
2018-04-22T07:14:47.906Z,11.05
2018-04-22T07:17:15.409Z,11.02
2018-04-22T07:19:43.728Z,11.40
2018-04-22T07:22:11.322Z,13.10
2018-04-22T07:24:38.786Z,8.60
2018-04-22T07:27:06.338Z,9.40
2018-04-22T07:29:33.808Z,14.13
2018-04-22T07:32:02.222Z,9.15
2018-04-22T07:34:29.740Z,8.43
2018-04-22T07:36:57.219Z,9.00
2018-04-22T07:39:25.495Z,12.50
2018-04-22T07:41:53.041Z,11.77
2018-04-22T07:44:20.516Z,8.50
2018-04-22T07:46:47.995Z,9.68
2018-04-22T07:49:15.478Z,11.18
2018-04-22T07:51:42.955Z,8.13
2018-04-22T07:54:10.510Z,10.15
2018-04-22T07:56:38.016Z,9.90
2018-04-22T07:59:06.266Z,9.68
2018-04-22T08:01:33.776Z,10.07
2018-04-22T08:04:01.237Z,9.15
2018-04-22T08:06:28.719Z,8.15
2018-04-22T08:08:56.258Z,9.00
2018-04-22T08:11:23.732Z,7.32
2018-04-22T08:13:51.249Z,7.82
2018-04-22T08:16:19.496Z,9.30
2018-04-22T08:18:46.972Z,10.80
2018-04-22T08:21:14.453Z,7.87
2018-04-22T08:23:43.161Z,6.90
2018-04-22T08:26:10.748Z,6.60
2018-04-22T08:28:38.307Z,7.10
2018-04-22T08:31:05.804Z,11.40
2018-04-22T08:33:34.053Z,6.80
2018-04-22T08:36:01.534Z,8.75
2018-04-22T08:38:29.792Z,19.80
2018-04-22T08:40:57.272Z,6.75
2018-04-22T08:43:25.510Z,10.05
2018-04-22T08:45:52.977Z,9.73
2018-04-22T08:48:20.557Z,14.02
2018-04-22T08:50:48.089Z,6.47
2018-04-22T08:53:15.557Z,12.75
2018-04-22T08:55:43.046Z,7.78
2018-04-22T08:58:11.398Z,10.00
2018-04-22T09:00:38.889Z,12.13
2018-04-22T09:03:07.108Z,7.70
2018-04-22T09:05:34.593Z,8.20
2018-04-22T09:08:02.069Z,9.85
2018-04-22T09:10:29.542Z,10.32
2018-04-22T09:12:57.813Z,7.72
2018-04-22T09:15:25.330Z,11.90
2018-04-22T09:17:52.974Z,7.90
2018-04-22T09:20:20.565Z,6.82
2018-04-22T09:22:48.061Z,6.18
2018-04-22T09:25:16.349Z,13.85
2018-04-22T09:27:44.577Z,8.55
2018-04-22T09:30:12.131Z,10.57
2018-04-22T09:32:39.606Z,7.28
2018-04-22T09:35:07.107Z,11.27
2018-04-22T09:37:34.737Z,6.25
2018-04-22T09:40:02.218Z,11.23
2018-04-22T09:42:29.721Z,10.82
2018-04-22T09:44:57.209Z,8.15
2018-04-22T09:47:25.780Z,10.20
2018-04-22T09:49:53.306Z,6.37
2018-04-22T09:52:20.838Z,10.52
2018-04-22T09:54:49.089Z,8.43
2018-04-22T09:57:17.422Z,17.15
2018-04-22T09:59:45.007Z,6.57
2018-04-22T10:02:16.261Z,6.53
2018-04-22T10:04:47.336Z,7.57
2018-04-22T10:07:15.608Z,7.10
2018-04-22T10:09:43.253Z,7.25
2018-04-22T10:12:10.712Z,11.68
2018-04-22T10:14:38.209Z,8.55
2018-04-22T10:17:06.512Z,7.43
2018-04-22T10:19:33.999Z,10.27
2018-04-22T10:22:01.497Z,7.28
2018-04-22T10:24:29.012Z,9.65
2018-04-22T10:26:56.500Z,10.40
2018-04-22T10:29:24.025Z,7.15
2018-04-22T10:31:51.544Z,11.32
2018-04-22T10:34:19.836Z,7.40
2018-04-22T10:36:47.299Z,8.00
2018-04-22T10:39:14.795Z,11.73
2018-04-22T10:41:42.264Z,10.02
2018-04-22T10:44:09.773Z,12.73
2018-04-22T10:46:37.247Z,6.97
2018-04-22T10:49:04.730Z,8.52
2018-04-22T10:51:34.209Z,9.68
2018-04-22T10:54:01.747Z,7.62
2018-04-22T10:56:30.485Z,9.18
2018-04-22T10:58:57.998Z,9.55
2018-04-22T11:01:25.449Z,7.57
2018-04-22T11:03:56.104Z,8.20
2018-04-22T11:06:23.874Z,8.02
2018-04-22T11:08:51.353Z,8.25
2018-04-22T11:11:19.639Z,8.15
2018-04-22T11:13:47.228Z,14.82
2018-04-22T11:16:14.701Z,8.23
2018-04-22T11:18:42.944Z,6.82
2018-04-22T11:21:11.236Z,9.35
2018-04-22T11:23:39.478Z,8.10
2018-04-22T11:26:06.964Z,8.90
2018-04-22T11:28:35.329Z,8.90
2018-04-22T11:31:02.799Z,8.90
2018-04-22T11:33:30.413Z,7.10
2018-04-22T11:35:57.906Z,10.48
2018-04-22T11:38:25.424Z,8.82
2018-04-22T11:40:52.909Z,11.77
2018-04-22T11:43:20.848Z,10.73
2018-04-22T11:45:49.040Z,10.43
2018-04-22T11:48:16.528Z,13.77
2018-04-22T11:50:44.010Z,16.90
2018-04-22T11:53:11.557Z,13.52
2018-04-22T11:55:39.069Z,10.63
2018-04-22T11:58:06.581Z,15.52
2018-04-22T12:00:34.279Z,13.00
2018-04-22T12:03:02.547Z,16.45
2018-04-22T12:05:30.266Z,16.85
2018-04-22T12:07:57.743Z,11.70
2018-04-22T12:10:25.232Z,13.82
2018-04-22T12:12:52.745Z,25.48
2018-04-22T12:15:20.209Z,29.70
2018-04-22T12:17:49.688Z,18.17
2018-04-22T12:20:17.168Z,11.20
2018-04-22T12:22:44.673Z,16.63
2018-04-22T12:25:12.957Z,13.43
2018-04-22T12:27:40.979Z,16.03
2018-04-22T12:30:08.489Z,12.20
2018-04-22T12:32:35.959Z,16.07
2018-04-22T12:35:03.444Z,16.70
2018-04-22T12:37:31.162Z,17.20
2018-04-22T12:39:59.420Z,19.70
2018-04-22T12:42:27.673Z,17.10
2018-04-22T12:44:55.365Z,24.27
2018-04-22T12:47:22.870Z,18.87
2018-04-22T12:49:50.657Z,22.37
2018-04-22T12:52:18.267Z,19.23
2018-04-22T12:54:46.533Z,12.20
2018-04-22T12:57:14.042Z,13.43
2018-04-22T12:59:41.512Z,17.83
2018-04-22T13:02:09.024Z,8.83
2018-04-22T13:04:37.384Z,10.87
2018-04-22T13:07:04.859Z,12.77
2018-04-22T13:09:33.128Z,16.57
2018-04-22T13:12:01.466Z,18.57
2018-04-22T13:14:29.000Z,12.73
2018-04-22T13:16:56.471Z,12.77
2018-04-22T13:19:23.950Z,11.43
2018-04-22T13:21:51.509Z,11.03
2018-04-22T13:24:19.004Z,13.33
2018-04-22T13:26:47.279Z,8.13
2018-04-22T13:29:14.916Z,6.70
2018-04-22T13:31:42.474Z,7.73
2018-04-22T13:34:10.207Z,8.03
2018-04-22T13:36:37.691Z,6.00
2018-04-22T13:39:05.210Z,7.60
2018-04-22T13:41:33.477Z,5.83
2018-04-22T13:44:01.877Z,6.20
2018-04-22T13:46:29.368Z,8.63
2018-04-22T13:48:56.870Z,6.93
2018-04-22T13:51:25.114Z,13.63
2018-04-22T13:53:52.608Z,8.40
2018-04-22T13:56:20.876Z,8.07
2018-04-22T13:58:48.409Z,9.47
2018-04-22T14:01:15.908Z,9.20
2018-04-22T14:03:44.340Z,19.63
2018-04-22T14:06:11.907Z,16.43
2018-04-22T14:08:39.428Z,15.63
2018-04-22T14:11:06.978Z,14.27
2018-04-22T14:13:34.499Z,63.43
2018-04-22T14:16:01.996Z,84.63
2018-04-22T14:18:29.537Z,73.07
2018-04-22T14:20:58.059Z,72.57
2018-04-22T14:23:25.693Z,41.43
2018-04-22T14:25:54.053Z,36.70
2018-04-22T14:28:21.590Z,25.40
2018-04-22T14:30:49.128Z,16.07
2018-04-22T14:33:16.676Z,26.57
2018-04-22T14:35:44.946Z,12.97
2018-04-22T14:38:12.466Z,13.63
2018-04-22T14:40:39.931Z,14.93
2018-04-22T14:43:07.480Z,9.03
2018-04-22T14:45:46.939Z,10.83
2018-04-22T14:48:15.289Z,8.97
2018-04-22T14:50:42.844Z,12.57
2018-04-22T14:53:10.343Z,11.07
2018-04-22T14:55:38.656Z,9.40
2018-04-22T14:58:06.230Z,9.90
2018-04-22T15:00:33.758Z,8.57
2018-04-22T15:03:01.258Z,14.97
2018-04-22T15:05:28.729Z,6.77
2018-04-22T15:07:56.436Z,7.40
2018-04-22T15:10:23.937Z,9.50
2018-04-22T15:12:51.434Z,8.93
2018-04-22T15:15:18.919Z,7.23
2018-04-22T15:17:46.387Z,7.97
2018-04-22T15:20:13.892Z,7.63
2018-04-22T15:22:41.516Z,7.60
2018-04-22T15:25:09.028Z,7.10
2018-04-22T15:27:36.519Z,7.47
2018-04-22T15:30:04.036Z,6.57
2018-04-22T15:32:31.512Z,6.47
2018-04-22T15:34:59.784Z,7.33
2018-04-22T15:37:27.286Z,7.03
2018-04-22T15:39:54.756Z,10.23
2018-04-22T15:42:22.256Z,6.67
2018-04-22T15:44:49.721Z,5.77
2018-04-22T15:47:17.360Z,6.20
2018-04-22T15:49:44.977Z,5.57
2018-04-22T15:52:12.510Z,6.30
2018-04-22T15:54:40.010Z,7.57
2018-04-22T15:57:07.517Z,6.50
2018-04-22T15:59:36.187Z,12.50
2018-04-22T16:02:03.920Z,10.73
2018-04-22T16:04:31.820Z,10.87
2018-04-22T16:06:59.329Z,8.20
2018-04-22T16:09:27.088Z,10.83
2018-04-22T16:11:55.926Z,4.80
2018-04-22T16:14:24.541Z,5.70
2018-04-22T16:16:52.836Z,8.30
2018-04-22T16:19:21.667Z,6.73
2018-04-22T16:21:49.182Z,8.30
2018-04-22T16:24:17.499Z,8.40
2018-04-22T16:26:45.054Z,5.70
2018-04-22T16:29:12.579Z,6.47
2018-04-22T16:31:40.865Z,7.00
2018-04-22T16:34:08.356Z,6.07
2018-04-22T16:36:35.874Z,5.73
2018-04-22T16:39:04.266Z,7.50
2018-04-22T16:41:32.515Z,13.97
2018-04-22T16:44:00.016Z,9.77
2018-04-22T16:46:27.511Z,8.90
2018-04-22T16:48:55.014Z,7.27
2018-04-22T16:51:23.516Z,12.43
2018-04-22T16:53:51.843Z,6.50
2018-04-22T16:56:19.329Z,13.23
2018-04-22T16:58:47.599Z,9.80
2018-04-22T17:01:15.156Z,11.63
2018-04-22T17:03:42.670Z,8.73
2018-04-22T17:06:10.159Z,8.30
2018-04-22T17:08:37.633Z,7.13
2018-04-22T17:11:05.121Z,10.27
2018-04-22T17:13:33.544Z,9.23
2018-04-22T17:16:01.921Z,7.43
2018-04-22T17:18:29.426Z,7.97
2018-04-22T17:20:57.671Z,10.77
2018-04-22T17:23:25.159Z,13.53
2018-04-22T17:25:52.631Z,11.73
2018-04-22T17:28:20.912Z,13.90
2018-04-22T17:30:49.196Z,11.77
2018-04-22T17:33:16.750Z,12.53
2018-04-22T17:35:44.242Z,9.83
2018-04-22T17:38:11.773Z,9.73
2018-04-22T17:40:39.269Z,8.00
2018-04-22T17:43:06.770Z,8.07
2018-04-22T17:45:35.156Z,10.03
2018-04-22T17:48:03.430Z,12.57
2018-04-22T17:50:31.685Z,8.77
2018-04-22T17:52:59.208Z,13.03
2018-04-22T17:55:26.691Z,14.30
2018-04-22T17:57:54.173Z,11.93
2018-04-22T18:00:21.664Z,13.27
2018-04-22T18:02:49.151Z,9.20
2018-04-22T18:05:16.641Z,11.53
2018-04-22T18:07:44.146Z,12.93
2018-04-22T18:10:11.737Z,19.00
2018-04-22T18:12:39.342Z,12.43
2018-04-22T18:15:09.157Z,18.00
2018-04-22T18:17:38.199Z,10.40
2018-04-22T18:20:06.130Z,10.70
2018-04-22T18:22:34.696Z,8.67
2018-04-22T18:25:03.152Z,23.93
2018-04-22T18:27:30.677Z,9.03
2018-04-22T18:29:58.200Z,11.53
2018-04-22T18:32:25.672Z,9.87
2018-04-22T18:34:54.154Z,11.00
2018-04-22T18:37:22.407Z,22.13
2018-04-22T18:39:49.884Z,11.47
2018-04-22T18:42:17.454Z,12.70
2018-04-22T18:44:45.695Z,8.43
2018-04-22T18:47:14.020Z,11.70
2018-04-22T18:49:41.802Z,13.83
2018-04-22T18:52:09.367Z,10.07
2018-04-22T18:54:36.909Z,14.93
2018-04-22T18:57:05.362Z,11.73
2018-04-22T18:59:32.864Z,9.43
2018-04-22T19:02:00.386Z,13.57
2018-04-22T19:04:27.872Z,12.73
2018-04-22T19:06:55.660Z,7.40
2018-04-22T19:09:25.512Z,11.80
2018-04-22T19:11:53.668Z,9.37
2018-04-22T19:14:21.565Z,8.83
2018-04-22T19:16:49.099Z,14.47
2018-04-22T19:19:16.568Z,14.17
2018-04-22T19:21:44.055Z,8.53
2018-04-22T19:24:11.587Z,9.00
2018-04-22T19:26:39.139Z,12.40
2018-04-22T19:29:06.700Z,9.10
2018-04-22T19:31:34.195Z,14.73
2018-04-22T19:34:02.187Z,11.50
2018-04-22T19:36:30.106Z,13.83
2018-04-22T19:38:58.377Z,9.27
2018-04-22T19:41:25.960Z,9.40
2018-04-22T19:43:53.573Z,13.80
2018-04-22T19:46:21.046Z,17.80
2018-04-22T19:48:48.600Z,15.43
2018-04-22T19:51:16.115Z,20.43
2018-04-22T19:53:44.405Z,20.43
2018-04-22T19:56:12.914Z,18.83
2018-04-22T19:58:41.191Z,30.10
2018-04-22T20:01:08.720Z,19.20
2018-04-22T20:03:37.471Z,10.60
2018-04-22T20:06:05.653Z,10.77
2018-04-22T20:08:33.123Z,11.43
2018-04-22T20:11:00.822Z,12.57
2018-04-22T20:13:28.528Z,16.47
2018-04-22T20:15:57.775Z,16.77
2018-04-22T20:18:26.055Z,8.10
2018-04-22T20:20:54.300Z,12.50
2018-04-22T20:23:22.826Z,15.87
2018-04-22T20:25:50.298Z,9.10
2018-04-22T20:28:17.801Z,15.13
2018-04-22T20:30:46.197Z,16.07
2018-04-22T20:33:13.912Z,19.50
2018-04-22T20:35:41.694Z,10.00
2018-04-22T20:38:09.171Z,18.13
2018-04-22T20:40:36.651Z,10.13
2018-04-22T20:43:04.182Z,9.53
2018-04-22T20:45:31.716Z,11.03
2018-04-22T20:47:59.421Z,15.40
2018-04-22T20:50:26.910Z,16.80
2018-04-22T20:52:54.458Z,17.80
2018-04-22T20:55:21.998Z,12.20
2018-04-22T20:57:49.508Z,18.07
2018-04-22T21:00:17.024Z,16.40
2018-04-22T21:02:44.651Z,17.13
2018-04-22T21:05:12.153Z,16.17
2018-04-22T21:07:40.385Z,11.17
2018-04-22T21:10:07.883Z,11.77
2018-04-22T21:12:35.341Z,12.60
2018-04-22T21:15:02.818Z,13.17
2018-04-22T21:17:30.374Z,8.70
2018-04-22T21:19:57.842Z,15.63
2018-04-22T21:22:26.127Z,11.50
2018-04-22T21:24:54.489Z,12.07
2018-04-22T21:27:21.992Z,9.37
2018-04-22T21:29:49.463Z,9.30
2018-04-22T21:32:16.982Z,10.53
2018-04-22T21:34:44.476Z,10.83
2018-04-22T21:37:12.166Z,12.20
2018-04-22T21:39:39.689Z,15.30
2018-04-22T21:42:07.204Z,15.57
2018-04-22T21:44:34.672Z,10.93
2018-04-22T21:47:02.924Z,14.50
2018-04-22T21:49:30.428Z,10.00
2018-04-22T21:51:57.902Z,17.40
2018-04-22T21:54:25.373Z,11.90
2018-04-22T21:56:52.889Z,11.60
2018-04-22T21:59:21.112Z,12.40
2018-04-22T22:01:48.584Z,14.23
2018-04-22T22:04:16.139Z,16.90
2018-04-22T22:06:43.631Z,10.93
2018-04-22T22:09:11.876Z,8.33
2018-04-22T22:11:39.365Z,16.37
2018-04-22T22:14:06.858Z,9.00
2018-04-22T22:16:34.576Z,9.63
2018-04-22T22:19:02.077Z,17.77
2018-04-22T22:21:29.587Z,11.60
2018-04-22T22:23:57.063Z,9.63
2018-04-22T22:26:24.560Z,13.90
2018-04-22T22:28:52.278Z,15.83
2018-04-22T22:31:19.848Z,8.93
2018-04-22T22:33:47.316Z,8.33
2018-04-22T22:36:15.578Z,12.20
2018-04-22T22:38:43.064Z,14.90
2018-04-22T22:41:10.548Z,11.53
2018-04-22T22:43:38.013Z,10.90
2018-04-22T22:46:05.514Z,12.80
2018-04-22T22:48:33.001Z,17.97
2018-04-22T22:51:01.243Z,18.90
2018-04-22T22:53:29.510Z,10.50
2018-04-22T22:55:57.037Z,15.43
2018-04-22T22:58:24.530Z,21.63
2018-04-22T23:00:51.991Z,9.10
2018-04-22T23:03:19.529Z,18.30
2018-04-22T23:05:47.014Z,14.03
2018-04-22T23:08:14.530Z,10.50
2018-04-22T23:10:42.034Z,14.93
2018-04-22T23:13:09.497Z,14.90
2018-04-22T23:15:36.980Z,17.57
2018-04-22T23:18:05.233Z,22.17
2018-04-22T23:20:32.768Z,27.13
2018-04-22T23:23:00.239Z,26.27
2018-04-22T23:25:27.767Z,21.13
2018-04-22T23:27:55.282Z,38.93
2018-04-22T23:30:22.784Z,30.17
2018-04-22T23:32:50.252Z,17.17
2018-04-22T23:35:17.746Z,16.80
2018-04-22T23:37:45.234Z,17.40
2018-04-22T23:40:13.509Z,15.10
2018-04-22T23:42:41.740Z,13.83
2018-04-22T23:45:09.229Z,13.67
2018-04-22T23:47:36.704Z,14.77
2018-04-22T23:50:04.963Z,16.00
2018-04-22T23:52:32.455Z,13.43
2018-04-22T23:54:59.928Z,19.80
2018-04-22T23:57:27.436Z,17.73
2018-04-22T23:59:54.914Z,16.50
